createdAt,value
2023-03-17T00:00:57.779Z,78.87
2023-03-17T00:04:06.984Z,79.57
2023-03-17T00:07:18.259Z,79.43
2023-03-17T00:10:27.784Z,79.37
2023-03-17T00:13:38.609Z,79.28
2023-03-17T00:16:51.008Z,80.02
2023-03-17T00:19:59.605Z,79.99
2023-03-17T00:23:15.318Z,79.75
2023-03-17T00:26:24.179Z,79.49
2023-03-17T00:29:34.337Z,80.08
2023-03-17T00:32:45.252Z,80.63
2023-03-17T00:35:55.948Z,80.56
2023-03-17T00:39:17.819Z,79.90
2023-03-17T00:42:25.981Z,80.10
2023-03-17T00:45:36.318Z,80.69
2023-03-17T00:48:46.697Z,81.00
2023-03-17T00:51:55.115Z,80.34
2023-03-17T00:55:03.621Z,80.17
2023-03-17T00:58:26.952Z,80.95
2023-03-17T01:01:36.482Z,80.78
2023-03-17T01:04:52.742Z,80.86
2023-03-17T01:08:04.614Z,80.83
2023-03-17T01:11:18.726Z,80.18
2023-03-17T01:14:29.288Z,81.34
2023-03-17T01:17:39.632Z,80.88
2023-03-17T01:20:49.222Z,81.30
2023-03-17T01:23:57.378Z,81.63
2023-03-17T01:27:06.799Z,82.02
2023-03-17T01:30:27.522Z,81.42
2023-03-17T01:33:37.224Z,81.60
2023-03-17T01:36:46.746Z,81.37
2023-03-17T01:39:55.710Z,81.78
2023-03-17T01:43:22.514Z,81.36
2023-03-17T01:46:33.991Z,81.44
2023-03-17T01:49:43.489Z,81.58
2023-03-17T01:52:51.669Z,82.10
2023-03-17T01:56:00.375Z,81.83
2023-03-17T02:02:53.975Z,82.53
2023-03-17T02:06:05.207Z,82.02
2023-03-17T02:09:14.729Z,81.85
2023-03-17T02:12:28.944Z,81.99
2023-03-17T02:15:40.335Z,82.04
2023-03-17T02:18:48.680Z,81.40
2023-03-17T02:22:00.215Z,81.06
2023-03-17T02:25:08.766Z,80.75
2023-03-17T02:28:24.728Z,81.82
2023-03-17T02:31:33.021Z,82.02
2023-03-17T02:34:41.924Z,81.51
2023-03-17T02:37:51.577Z,81.18
2023-03-17T02:40:59.680Z,81.62
2023-03-17T02:44:08.274Z,82.41
2023-03-17T02:47:17.264Z,81.28
2023-03-17T02:50:30.216Z,81.51
2023-03-17T02:53:39.852Z,81.36
2023-03-17T02:56:48.004Z,81.47
2023-03-17T02:59:56.595Z,81.16
2023-03-17T03:03:04.935Z,81.21
2023-03-17T03:06:13.371Z,80.96
2023-03-17T03:09:24.177Z,81.56
2023-03-17T03:12:32.841Z,81.41
2023-03-17T03:15:43.574Z,82.30
2023-03-17T03:18:51.765Z,81.79
2023-03-17T03:22:00.000Z,81.34
2023-03-17T03:25:10.217Z,80.90
2023-03-17T03:28:18.607Z,80.61
2023-03-17T03:31:27.680Z,80.77
2023-03-17T03:34:39.023Z,81.26
2023-03-17T03:37:49.869Z,80.45
2023-03-17T03:40:59.354Z,80.61
2023-03-17T03:44:07.485Z,80.22
2023-03-17T03:47:15.752Z,80.27
2023-03-17T03:50:24.537Z,81.19
2023-03-17T03:53:32.734Z,80.97
2023-03-17T03:56:42.189Z,80.92
2023-03-17T03:59:50.304Z,80.07
2023-03-17T04:02:58.626Z,80.01
2023-03-17T04:06:07.708Z,79.96
2023-03-17T04:09:16.080Z,79.48
2023-03-17T04:12:25.642Z,78.81
2023-03-17T04:15:33.777Z,79.07
2023-03-17T04:18:42.388Z,79.24
2023-03-17T04:21:53.492Z,78.30
2023-03-17T04:25:02.546Z,78.76
2023-03-17T04:28:12.218Z,78.66
2023-03-17T04:31:21.123Z,78.46
2023-03-17T04:34:29.388Z,78.27
2023-03-17T04:37:38.855Z,77.56
2023-03-17T04:40:47.631Z,77.61
2023-03-17T04:43:57.187Z,77.26
2023-03-17T04:47:05.455Z,77.51
2023-03-17T04:50:14.925Z,77.44
2023-03-17T04:53:23.231Z,77.75
2023-03-17T04:56:32.070Z,77.38
2023-03-17T04:59:41.731Z,76.79
2023-03-17T05:02:49.950Z,77.09
2023-03-17T05:05:58.642Z,77.48
2023-03-17T05:09:06.770Z,76.86
2023-03-17T05:12:15.530Z,78.08
2023-03-17T05:15:25.175Z,77.27
2023-03-17T05:18:33.388Z,77.23
2023-03-17T05:21:42.637Z,77.57
2023-03-17T05:24:50.757Z,77.72
2023-03-17T05:27:59.049Z,77.93
2023-03-17T05:31:10.819Z,77.69
2023-03-17T05:34:19.532Z,77.65
2023-03-17T05:37:27.635Z,77.53
2023-03-17T05:40:36.927Z,77.70
2023-03-17T05:43:45.031Z,77.16
2023-03-17T05:46:55.219Z,77.55
2023-03-17T05:50:04.966Z,76.84
2023-03-17T05:53:13.126Z,75.95
2023-03-17T05:56:21.863Z,75.68
2023-03-17T05:59:29.954Z,75.76
2023-03-17T06:02:40.634Z,75.13
2023-03-17T06:05:48.887Z,74.24
2023-03-17T06:08:56.981Z,73.87
2023-03-17T06:12:06.821Z,73.11
2023-03-17T06:15:16.643Z,71.88
2023-03-17T06:18:26.258Z,71.59
2023-03-17T06:21:34.581Z,70.39
2023-03-17T06:24:42.727Z,70.48
2023-03-17T06:27:54.509Z,69.69
2023-03-17T06:31:05.247Z,69.24
2023-03-17T06:34:16.474Z,69.19
2023-03-17T06:37:25.897Z,68.83
2023-03-17T06:40:34.220Z,68.21
2023-03-17T06:43:43.484Z,67.99
2023-03-17T06:46:52.761Z,68.43
2023-03-17T06:50:02.368Z,68.45
2023-03-17T06:53:11.344Z,67.60
2023-03-17T06:56:29.530Z,67.67
2023-03-17T06:59:39.018Z,66.56
2023-03-17T07:02:47.419Z,66.37
2023-03-17T07:05:57.026Z,64.55
2023-03-17T07:09:05.760Z,63.63
2023-03-17T07:12:14.287Z,61.24
2023-03-17T07:15:22.536Z,58.16
2023-03-17T07:18:32.021Z,57.37
2023-03-17T07:21:41.527Z,56.57
2023-03-17T07:24:49.971Z,54.71
2023-03-17T07:27:58.577Z,54.61
2023-03-17T07:31:09.531Z,53.29
2023-03-17T07:34:18.084Z,52.60
2023-03-17T07:37:27.590Z,52.27
2023-03-17T07:40:36.716Z,52.68
2023-03-17T07:43:44.941Z,52.49
2023-03-17T07:46:53.302Z,53.09
2023-03-17T07:50:01.440Z,52.32
2023-03-17T07:53:11.400Z,51.90
2023-03-17T07:56:19.763Z,50.46
2023-03-17T07:59:28.925Z,51.36
2023-03-17T08:02:38.357Z,50.67
2023-03-17T08:05:47.150Z,50.93
2023-03-17T08:08:56.960Z,50.84
2023-03-17T08:12:09.535Z,50.43
2023-03-17T08:15:18.144Z,51.67
2023-03-17T08:18:26.471Z,50.05
2023-03-17T08:21:35.091Z,50.04
2023-03-17T08:24:44.852Z,50.83
2023-03-17T08:27:54.021Z,50.93
2023-03-17T08:31:12.459Z,49.30
2023-03-17T08:34:20.867Z,49.74
2023-03-17T08:37:29.296Z,51.15
2023-03-17T08:40:41.303Z,48.46
2023-03-17T08:43:50.385Z,48.80
2023-03-17T08:46:58.562Z,48.05
2023-03-17T08:50:13.450Z,49.09
2023-03-17T08:53:21.984Z,48.07
2023-03-17T08:56:31.805Z,47.01
2023-03-17T08:59:40.498Z,47.85
2023-03-17T09:02:49.722Z,47.66
2023-03-17T09:05:59.734Z,47.25
2023-03-17T09:09:07.954Z,46.26
2023-03-17T09:12:17.737Z,45.99
2023-03-17T09:15:26.025Z,45.63
2023-03-17T09:18:34.780Z,45.03
2023-03-17T09:21:43.251Z,43.21
2023-03-17T09:24:51.723Z,43.60
2023-03-17T09:28:01.666Z,43.53
2023-03-17T09:31:11.435Z,41.56
2023-03-17T09:34:21.002Z,43.88
2023-03-17T09:37:29.281Z,42.50
2023-03-17T09:40:46.218Z,41.29
2023-03-17T09:44:07.850Z,41.21
2023-03-17T09:47:54.138Z,41.00
2023-03-17T09:51:09.044Z,39.35
2023-03-17T09:54:27.513Z,39.65
2023-03-17T09:57:39.402Z,36.96
2023-03-17T10:00:49.083Z,37.39
2023-03-17T10:03:57.830Z,37.95
2023-03-17T10:07:07.693Z,37.37
2023-03-17T10:10:21.293Z,36.60
2023-03-17T10:13:48.380Z,36.80
2023-03-17T10:17:06.931Z,37.52
2023-03-17T10:20:24.589Z,35.60
2023-03-17T10:23:36.741Z,34.50
2023-03-17T10:26:51.546Z,35.68
2023-03-17T10:30:00.059Z,35.99
2023-03-17T10:33:09.730Z,36.32
2023-03-17T10:36:34.784Z,36.32
2023-03-17T10:39:47.917Z,35.94
2023-03-17T10:43:03.839Z,35.13
2023-03-17T10:46:22.167Z,35.04
2023-03-17T10:49:37.106Z,35.14
2023-03-17T10:52:49.800Z,34.44
2023-03-17T10:56:07.580Z,35.20
2023-03-17T10:59:21.263Z,33.96
2023-03-17T11:02:32.023Z,35.78
2023-03-17T11:05:41.620Z,35.34
2023-03-17T11:08:54.900Z,34.23
2023-03-17T11:12:08.847Z,35.25
2023-03-17T11:15:20.280Z,36.63
2023-03-17T11:18:37.416Z,35.74
2023-03-17T11:22:01.492Z,37.16
2023-03-17T11:25:16.355Z,36.98
2023-03-17T11:28:35.018Z,37.21
2023-03-17T11:31:58.448Z,37.24
2023-03-17T11:35:29.927Z,35.70
2023-03-17T11:38:52.979Z,38.09
2023-03-17T11:42:17.666Z,37.93
2023-03-17T11:45:31.426Z,35.10
2023-03-17T11:48:52.963Z,35.17
2023-03-17T11:52:12.189Z,35.36
2023-03-17T11:55:32.795Z,35.64
2023-03-17T11:58:46.062Z,32.95
2023-03-17T12:02:04.728Z,33.92
2023-03-17T12:05:18.927Z,34.64
2023-03-17T12:08:38.676Z,34.51
2023-03-17T12:11:51.968Z,34.00
2023-03-17T12:15:05.317Z,34.13
2023-03-17T12:18:21.420Z,34.87
2023-03-17T12:21:38.551Z,35.33
2023-03-17T12:24:56.479Z,36.27
2023-03-17T12:28:15.897Z,35.19
2023-03-17T12:31:32.303Z,34.46
2023-03-17T12:34:50.664Z,34.78
2023-03-17T12:38:02.920Z,32.22
2023-03-17T12:42:01.928Z,32.74
2023-03-17T12:45:47.282Z,34.57
2023-03-17T12:49:38.885Z,32.72
2023-03-17T12:53:26.559Z,33.17
2023-03-17T12:56:45.058Z,33.60
2023-03-17T13:00:06.049Z,33.50
2023-03-17T13:03:26.251Z,34.25
2023-03-17T13:06:56.121Z,33.79
2023-03-17T13:10:40.508Z,34.38
2023-03-17T13:14:15.679Z,34.98
2023-03-17T13:17:35.176Z,34.69
2023-03-17T13:20:54.153Z,35.36
2023-03-17T13:24:51.815Z,35.36
2023-03-17T13:28:42.782Z,35.29
2023-03-17T13:31:51.336Z,36.21
2023-03-17T13:35:21.039Z,35.53
2023-03-17T13:39:18.414Z,35.69
2023-03-17T13:43:00.272Z,35.63
2023-03-17T13:46:35.186Z,35.50
2023-03-17T13:49:52.263Z,34.83
2023-03-17T13:53:10.558Z,34.80
2023-03-17T13:56:30.849Z,35.31
2023-03-17T14:00:00.982Z,34.91
2023-03-17T14:03:17.611Z,33.15
2023-03-17T14:06:31.337Z,33.77
2023-03-17T14:09:42.591Z,33.84
2023-03-17T14:13:02.083Z,32.98
2023-03-17T14:16:22.256Z,33.50
2023-03-17T14:19:32.248Z,33.84
2023-03-17T14:22:45.497Z,33.78
2023-03-17T14:25:57.172Z,33.49
2023-03-17T14:29:07.507Z,33.83
2023-03-17T14:32:18.695Z,34.72
2023-03-17T14:35:32.386Z,35.52
2023-03-17T14:38:49.262Z,35.30
2023-03-17T14:42:03.699Z,36.29
2023-03-17T14:45:29.840Z,36.06
2023-03-17T14:48:42.959Z,37.10
2023-03-17T14:51:56.171Z,37.67
2023-03-17T14:55:06.162Z,37.94
2023-03-17T14:58:24.508Z,38.93
2023-03-17T15:01:39.860Z,39.58
2023-03-17T15:04:56.762Z,40.61
2023-03-17T15:08:40.986Z,39.94
2023-03-17T15:11:51.019Z,40.44
2023-03-17T15:15:04.605Z,40.14
2023-03-17T15:18:16.796Z,39.34
2023-03-17T15:21:33.869Z,40.61
2023-03-17T15:24:44.057Z,40.38
2023-03-17T15:27:53.592Z,40.40
2023-03-17T15:31:14.510Z,40.97
2023-03-17T15:34:24.126Z,41.07
2023-03-17T15:37:35.727Z,41.56
2023-03-17T15:40:44.207Z,41.52
2023-03-17T15:43:52.349Z,41.81
2023-03-17T15:47:00.827Z,42.31
2023-03-17T15:50:18.647Z,42.16
2023-03-17T15:53:27.291Z,42.85
2023-03-17T15:56:35.591Z,44.29
2023-03-17T15:59:44.204Z,44.88
2023-03-17T16:02:58.527Z,45.87
2023-03-17T16:06:17.608Z,45.98
2023-03-17T16:09:26.077Z,46.21
2023-03-17T16:12:34.272Z,46.42
2023-03-17T16:15:48.249Z,46.67
2023-03-17T16:18:57.878Z,46.76
2023-03-17T16:22:29.665Z,47.40
2023-03-17T16:25:38.502Z,46.71
2023-03-17T16:28:49.473Z,47.76
2023-03-17T16:31:57.766Z,48.28
2023-03-17T16:35:15.589Z,48.90
2023-03-17T16:38:28.983Z,48.90
2023-03-17T16:41:37.699Z,49.29
2023-03-17T16:44:46.444Z,50.21
2023-03-17T16:47:55.387Z,51.26
2023-03-17T16:51:04.302Z,51.21
2023-03-17T16:54:14.256Z,52.00
2023-03-17T16:57:22.749Z,53.65
2023-03-17T17:00:33.357Z,53.47
2023-03-17T17:03:42.458Z,54.02
2023-03-17T17:06:51.010Z,55.15
2023-03-17T17:10:01.275Z,55.88
2023-03-17T17:13:11.920Z,56.82
2023-03-17T17:16:27.652Z,57.06
2023-03-17T17:19:36.229Z,57.59
2023-03-17T17:22:44.909Z,58.78
2023-03-17T17:25:56.088Z,59.14
2023-03-17T17:29:04.413Z,60.00
2023-03-17T17:32:13.699Z,60.56
2023-03-17T17:35:22.357Z,61.69
2023-03-17T17:38:31.240Z,62.28
2023-03-17T17:41:40.811Z,62.35
2023-03-17T17:44:49.252Z,63.28
2023-03-17T17:47:59.617Z,63.39
2023-03-17T17:51:07.910Z,64.18
2023-03-17T17:54:16.399Z,64.45
2023-03-17T17:57:26.138Z,64.73
2023-03-17T18:00:34.471Z,64.48
2023-03-17T18:03:43.148Z,65.62
2023-03-17T18:06:51.575Z,65.99
2023-03-17T18:09:59.939Z,65.77
2023-03-17T18:13:09.596Z,66.24
2023-03-17T18:16:21.008Z,66.82
2023-03-17T18:19:29.425Z,66.32
2023-03-17T18:22:38.070Z,66.83
2023-03-17T18:25:46.242Z,66.76
2023-03-17T18:28:56.483Z,67.44
2023-03-17T18:32:06.761Z,67.78
2023-03-17T18:35:21.841Z,68.16
2023-03-17T18:38:30.046Z,67.77
2023-03-17T18:41:39.195Z,67.94
2023-03-17T18:44:48.924Z,68.95
2023-03-17T18:47:57.184Z,69.25
2023-03-17T18:51:05.663Z,69.24
2023-03-17T18:54:13.881Z,69.13
2023-03-17T18:57:22.276Z,69.31
2023-03-17T19:00:31.925Z,69.65
2023-03-17T19:03:40.725Z,69.33
2023-03-17T19:06:48.884Z,69.36
2023-03-17T19:09:57.194Z,69.25
2023-03-17T19:13:06.194Z,69.31
2023-03-17T19:16:16.684Z,69.34
2023-03-17T19:19:24.957Z,69.76
2023-03-17T19:22:33.955Z,70.97
2023-03-17T19:25:42.200Z,71.11
2023-03-17T19:28:50.716Z,71.71
2023-03-17T19:32:00.542Z,72.16
2023-03-17T19:35:09.594Z,72.93
2023-03-17T19:38:17.860Z,73.29
2023-03-17T19:41:26.588Z,73.72
2023-03-17T19:44:34.853Z,74.18
2023-03-17T19:47:44.565Z,74.36
2023-03-17T19:50:53.324Z,74.51
2023-03-17T19:54:01.737Z,74.89
2023-03-17T19:57:09.984Z,74.63
2023-03-17T20:00:20.875Z,74.94
2023-03-17T20:03:30.508Z,74.72
2023-03-17T20:06:38.872Z,74.99
2023-03-17T20:09:48.507Z,75.21
2023-03-17T20:12:56.749Z,75.49
2023-03-17T20:16:07.217Z,75.26
2023-03-17T20:19:17.480Z,76.11
2023-03-17T20:22:25.915Z,76.69
2023-03-17T20:25:34.131Z,75.91
2023-03-17T20:28:42.548Z,75.96
2023-03-17T20:31:50.693Z,76.30
2023-03-17T20:35:00.867Z,78.32
2023-03-17T20:38:09.954Z,77.32
2023-03-17T20:41:21.003Z,78.37
2023-03-17T20:44:29.262Z,77.88
2023-03-17T20:47:40.985Z,78.74
2023-03-17T20:50:51.720Z,79.20
2023-03-17T20:54:01.672Z,79.74
2023-03-17T20:57:13.976Z,78.64
2023-03-17T21:00:23.154Z,78.99
2023-03-17T21:03:32.369Z,78.49
2023-03-17T21:06:42.853Z,79.23
2023-03-17T21:09:51.895Z,78.08
2023-03-17T21:13:00.102Z,78.20
2023-03-17T21:16:08.522Z,79.21
2023-03-17T21:19:17.334Z,78.80
2023-03-17T21:22:26.931Z,79.48
2023-03-17T21:25:36.082Z,79.59
2023-03-17T21:28:45.357Z,79.11
2023-03-17T21:31:54.275Z,79.50
2023-03-17T21:35:02.634Z,79.56
2023-03-17T21:38:12.385Z,79.90
2023-03-17T21:41:32.137Z,80.05
2023-03-17T21:44:42.131Z,79.60
2023-03-17T21:47:50.977Z,79.65
2023-03-17T21:50:59.458Z,79.05
2023-03-17T21:54:09.078Z,79.73
2023-03-17T21:57:17.891Z,79.79
2023-03-17T22:00:29.001Z,79.47
2023-03-17T22:03:44.573Z,79.35
2023-03-17T22:06:53.880Z,79.74
2023-03-17T22:10:06.255Z,80.29
2023-03-17T22:13:14.456Z,80.18
2023-03-17T22:16:22.771Z,80.61
2023-03-17T22:19:31.210Z,80.95
2023-03-17T22:22:39.503Z,80.82
2023-03-17T22:25:49.167Z,80.28
2023-03-17T22:28:58.404Z,80.76
2023-03-17T22:32:07.522Z,80.08
2023-03-17T22:35:19.185Z,80.96
2023-03-17T22:38:27.696Z,81.64
2023-03-17T22:41:38.481Z,80.79
2023-03-17T22:44:46.647Z,80.94
2023-03-17T22:47:55.466Z,81.31
2023-03-17T22:51:05.117Z,81.51
2023-03-17T22:54:13.474Z,82.24
2023-03-17T22:57:23.137Z,81.89
2023-03-17T23:00:32.202Z,81.97
2023-03-17T23:03:41.927Z,81.83
2023-03-17T23:06:50.449Z,82.09
2023-03-17T23:09:58.635Z,81.74
2023-03-17T23:13:08.504Z,81.52
2023-03-17T23:16:17.405Z,81.72
2023-03-17T23:19:25.768Z,81.99
2023-03-17T23:22:34.938Z,82.15
2023-03-17T23:25:43.626Z,82.18
2023-03-17T23:28:53.778Z,82.65
2023-03-17T23:32:02.196Z,82.16
2023-03-17T23:35:11.544Z,82.03
2023-03-17T23:38:21.518Z,81.20
2023-03-17T23:41:29.966Z,80.45
2023-03-17T23:44:39.977Z,81.00
2023-03-17T23:47:52.865Z,80.56
2023-03-17T23:51:01.114Z,80.88
2023-03-17T23:54:09.400Z,80.31
2023-03-17T23:57:17.786Z,80.35
